createdAt,value
2023-03-03T00:01:15.705Z,2.60
2023-03-03T00:04:37.283Z,2.60
2023-03-03T00:07:58.995Z,2.60
2023-03-03T00:11:22.756Z,2.60
2023-03-03T00:14:44.796Z,2.50
2023-03-03T00:18:13.736Z,2.50
2023-03-03T00:21:40.684Z,2.40
2023-03-03T00:25:21.003Z,2.40
2023-03-03T00:28:45.435Z,2.30
2023-03-03T00:32:17.361Z,2.20
2023-03-03T00:35:39.045Z,2.10
2023-03-03T00:39:16.481Z,2.00
2023-03-03T00:42:41.345Z,1.90
2023-03-03T00:46:04.543Z,1.80
2023-03-03T00:49:26.942Z,1.70
2023-03-03T00:52:53.616Z,1.60
2023-03-03T00:56:15.255Z,1.50
2023-03-03T00:59:36.850Z,1.40
2023-03-03T01:03:01.809Z,1.40
2023-03-03T01:06:23.844Z,1.30
2023-03-03T01:09:45.446Z,1.20
2023-03-03T01:13:07.134Z,1.20
2023-03-03T01:16:28.834Z,1.10
2023-03-03T01:19:51.824Z,1.00
2023-03-03T01:23:13.616Z,1.00
2023-03-03T01:26:35.257Z,1.00
2023-03-03T01:29:57.118Z,0.90
2023-03-03T01:33:19.181Z,0.90
2023-03-03T01:36:42.157Z,0.80
2023-03-03T01:40:04.268Z,0.80
2023-03-03T01:43:26.388Z,0.80
2023-03-03T01:46:51.222Z,0.70
2023-03-03T01:50:14.314Z,0.70
2023-03-03T01:53:41.989Z,0.60
2023-03-03T01:57:05.470Z,0.50
2023-03-03T02:00:27.517Z,0.50
2023-03-03T02:03:49.376Z,0.40
2023-03-03T02:07:11.993Z,0.40
2023-03-03T02:10:34.951Z,0.40
2023-03-03T02:13:56.608Z,0.30
2023-03-03T02:17:18.252Z,0.30
2023-03-03T02:20:46.086Z,0.20
2023-03-03T02:24:09.279Z,0.20
2023-03-03T02:27:32.824Z,0.10
2023-03-03T02:30:54.653Z,0.00
2023-03-03T02:34:17.209Z,0.00
2023-03-03T02:37:39.074Z,0.00
2023-03-03T02:41:03.453Z,-0.10
2023-03-03T02:44:28.036Z,-0.10
2023-03-03T02:47:49.878Z,-0.10
2023-03-03T02:51:11.526Z,-0.10
2023-03-03T02:54:33.208Z,0.00
2023-03-03T02:57:54.814Z,0.10
2023-03-03T03:01:18.155Z,0.30
2023-03-03T03:04:39.872Z,0.40
2023-03-03T03:08:01.540Z,0.60
2023-03-03T03:11:23.143Z,0.70
2023-03-03T03:14:44.823Z,0.80
2023-03-03T03:18:07.774Z,0.90
2023-03-03T03:21:29.436Z,1.00
2023-03-03T03:24:51.023Z,1.10
2023-03-03T03:28:12.987Z,1.20
2023-03-03T03:31:34.557Z,1.20
2023-03-03T03:34:57.550Z,1.30
2023-03-03T03:38:19.140Z,1.30
2023-03-03T03:41:40.706Z,1.40
2023-03-03T03:45:02.306Z,1.40
2023-03-03T03:48:23.965Z,1.40
2023-03-03T03:51:47.032Z,1.50
2023-03-03T03:55:09.130Z,1.50
2023-03-03T03:58:30.754Z,1.60
2023-03-03T04:01:52.425Z,1.60
2023-03-03T04:05:14.017Z,1.60
2023-03-03T04:08:36.959Z,1.70
2023-03-03T04:11:58.646Z,1.80
2023-03-03T04:15:20.384Z,1.80
2023-03-03T04:18:42.622Z,1.90
2023-03-03T04:22:05.064Z,1.90
2023-03-03T04:25:28.016Z,2.00
2023-03-03T04:28:49.628Z,2.00
2023-03-03T04:32:11.316Z,2.10
2023-03-03T04:35:32.986Z,2.10
2023-03-03T04:38:54.684Z,2.10
2023-03-03T04:42:17.653Z,2.10
2023-03-03T04:45:39.275Z,2.20
2023-03-03T04:49:00.949Z,2.20
2023-03-03T04:52:22.543Z,2.20
2023-03-03T04:55:44.186Z,2.20
2023-03-03T04:59:07.114Z,2.20
2023-03-03T05:02:28.744Z,2.20
2023-03-03T05:05:50.467Z,2.20
2023-03-03T05:09:12.088Z,2.30
2023-03-03T05:12:33.974Z,2.30
2023-03-03T05:15:57.166Z,2.40
2023-03-03T05:19:18.782Z,2.40
2023-03-03T05:22:40.406Z,2.40
2023-03-03T05:26:02.085Z,2.40
2023-03-03T05:29:23.690Z,2.40
2023-03-03T05:32:46.627Z,2.40
2023-03-03T05:36:08.425Z,2.30
2023-03-03T05:39:30.042Z,2.40
2023-03-03T05:42:51.816Z,2.30
2023-03-03T05:46:13.529Z,2.40
2023-03-03T05:49:36.674Z,2.40
2023-03-03T05:52:58.517Z,2.40
2023-03-03T05:56:20.099Z,2.40
2023-03-03T05:59:41.685Z,2.40
2023-03-03T06:03:03.447Z,2.50
2023-03-03T06:06:26.467Z,2.50
2023-03-03T06:09:48.092Z,2.50
2023-03-03T06:13:09.696Z,2.40
2023-03-03T06:16:31.338Z,2.40
2023-03-03T06:19:52.962Z,2.40
2023-03-03T06:23:15.883Z,2.40
2023-03-03T06:26:37.454Z,2.50
2023-03-03T06:29:59.058Z,2.50
2023-03-03T06:33:20.723Z,2.50
2023-03-03T06:36:42.468Z,2.50
2023-03-03T06:40:06.379Z,2.50
2023-03-03T06:43:28.026Z,2.60
2023-03-03T06:46:49.728Z,2.60
2023-03-03T06:50:11.745Z,2.70
2023-03-03T06:53:33.398Z,2.80
2023-03-03T06:56:58.254Z,2.90
2023-03-03T07:00:23.250Z,3.00
2023-03-03T07:03:45.574Z,3.10
2023-03-03T07:07:10.923Z,3.20
2023-03-03T07:10:32.568Z,3.20
2023-03-03T07:13:55.852Z,3.40
2023-03-03T07:17:18.932Z,3.40
2023-03-03T07:20:40.545Z,3.50
2023-03-03T07:24:15.165Z,3.60
2023-03-03T07:27:37.024Z,3.60
2023-03-03T07:31:00.084Z,3.70
2023-03-03T07:34:22.638Z,3.80
2023-03-03T07:37:44.253Z,3.90
2023-03-03T07:41:10.828Z,4.00
2023-03-03T07:44:34.610Z,4.00
2023-03-03T07:48:01.294Z,4.20
2023-03-03T07:51:23.818Z,4.20
2023-03-03T07:54:45.618Z,4.30
2023-03-03T07:58:17.662Z,4.40
2023-03-03T08:01:40.084Z,4.60
2023-03-03T08:05:21.458Z,4.90
2023-03-03T08:08:43.122Z,4.90
2023-03-03T08:12:18.825Z,4.90
2023-03-03T08:15:40.529Z,5.20
2023-03-03T08:19:02.923Z,5.50
2023-03-03T08:22:29.767Z,5.80
2023-03-03T08:25:51.809Z,6.00
2023-03-03T08:29:13.418Z,6.20
2023-03-03T08:32:35.064Z,6.30
2023-03-03T08:35:56.736Z,6.40
2023-03-03T08:39:19.717Z,6.40
2023-03-03T08:42:41.326Z,6.20
2023-03-03T08:46:03.781Z,6.20
2023-03-03T08:49:25.426Z,6.30
2023-03-03T08:52:47.055Z,6.90
2023-03-03T08:56:10.069Z,8.20
2023-03-03T08:59:31.657Z,8.70
2023-03-03T09:02:53.757Z,8.80
2023-03-03T09:06:15.379Z,9.10
2023-03-03T09:09:36.973Z,9.10
2023-03-03T09:13:00.769Z,8.80
2023-03-03T09:16:22.461Z,8.30
2023-03-03T09:19:44.198Z,7.90
2023-03-03T09:23:24.528Z,8.00
2023-03-03T09:26:46.605Z,8.20
2023-03-03T09:30:16.420Z,8.00
2023-03-03T09:33:41.510Z,7.90
2023-03-03T09:37:15.328Z,7.70
2023-03-03T09:40:47.214Z,7.70
2023-03-03T09:44:27.605Z,7.70
2023-03-03T09:48:19.176Z,7.70
2023-03-03T09:51:45.926Z,7.80
2023-03-03T09:55:26.383Z,8.00
2023-03-03T09:58:55.363Z,8.20
2023-03-03T10:02:24.458Z,8.50
2023-03-03T10:05:48.953Z,8.70
2023-03-03T10:09:29.433Z,8.40
2023-03-03T10:12:58.271Z,9.00
2023-03-03T10:16:29.537Z,9.00
2023-03-03T10:19:57.461Z,9.00
2023-03-03T10:23:21.051Z,8.80
2023-03-03T10:27:09.870Z,8.80
2023-03-03T10:30:46.222Z,8.80
2023-03-03T10:34:22.697Z,8.70
2023-03-03T10:37:48.764Z,8.90
2023-03-03T10:41:14.528Z,9.00
2023-03-03T10:44:44.672Z,9.10
2023-03-03T10:48:16.411Z,9.00
2023-03-03T10:51:44.156Z,8.90
2023-03-03T10:55:16.739Z,8.90
2023-03-03T10:58:45.358Z,8.90
2023-03-03T11:02:13.141Z,8.90
2023-03-03T11:05:40.552Z,8.70
2023-03-03T11:09:05.437Z,8.90
2023-03-03T11:12:33.971Z,9.00
2023-03-03T11:16:01.877Z,9.20
2023-03-03T11:19:34.374Z,9.50
2023-03-03T11:23:00.134Z,9.70
2023-03-03T11:26:26.496Z,9.70
2023-03-03T11:29:57.013Z,9.80
2023-03-03T11:33:20.764Z,9.80
2023-03-03T11:36:45.613Z,9.90
2023-03-03T11:40:12.557Z,10.00
2023-03-03T11:43:38.106Z,9.90
2023-03-03T11:47:02.837Z,9.80
2023-03-03T11:50:27.002Z,9.60
2023-03-03T11:53:57.280Z,9.40
2023-03-03T11:57:20.933Z,9.10
2023-03-03T12:00:47.397Z,9.10
2023-03-03T12:04:11.386Z,9.10
2023-03-03T12:07:40.892Z,9.00
2023-03-03T12:11:07.637Z,8.80
2023-03-03T12:14:42.735Z,8.70
2023-03-03T12:18:16.101Z,8.60
2023-03-03T12:21:44.719Z,8.50
2023-03-03T12:25:21.854Z,8.20
2023-03-03T12:28:49.959Z,8.20
2023-03-03T12:32:16.960Z,8.20
2023-03-03T12:35:42.146Z,8.20
2023-03-03T12:39:06.234Z,8.20
2023-03-03T12:42:37.188Z,8.10
2023-03-03T12:46:04.581Z,8.00
2023-03-03T12:49:34.656Z,8.10
2023-03-03T12:53:10.366Z,8.20
2023-03-03T12:56:35.493Z,8.20
2023-03-03T13:00:11.551Z,8.20
2023-03-03T13:03:53.373Z,8.40
2023-03-03T13:07:18.568Z,8.50
2023-03-03T13:10:44.489Z,8.60
2023-03-03T13:14:12.086Z,8.90
2023-03-03T13:17:37.529Z,8.90
2023-03-03T13:21:05.154Z,8.90
2023-03-03T13:24:29.671Z,9.00
2023-03-03T13:27:53.485Z,9.30
2023-03-03T13:31:16.892Z,9.50
2023-03-03T13:34:41.921Z,9.60
2023-03-03T13:38:06.354Z,9.40
2023-03-03T13:41:30.125Z,9.20
2023-03-03T13:44:52.749Z,9.10
2023-03-03T13:48:22.506Z,8.90
2023-03-03T13:51:47.312Z,9.00
2023-03-03T13:55:17.620Z,9.00
2023-03-03T13:58:45.261Z,9.10
2023-03-03T14:02:22.880Z,9.00
2023-03-03T14:05:45.552Z,8.90
2023-03-03T14:09:21.374Z,8.90
2023-03-03T14:12:47.497Z,9.00
2023-03-03T14:16:16.399Z,8.90
2023-03-03T14:19:40.372Z,8.90
2023-03-03T14:23:02.865Z,8.80
2023-03-03T14:26:24.882Z,8.90
2023-03-03T14:29:47.883Z,9.00
2023-03-03T14:33:17.900Z,9.00
2023-03-03T14:36:40.274Z,9.10
2023-03-03T14:40:11.379Z,9.00
2023-03-03T14:43:34.112Z,9.10
2023-03-03T14:47:10.701Z,9.10
2023-03-03T14:50:35.548Z,9.10
2023-03-03T14:53:57.527Z,9.00
2023-03-03T14:57:20.062Z,9.00
2023-03-03T15:00:41.697Z,9.00
2023-03-03T15:04:04.345Z,8.90
2023-03-03T15:07:31.780Z,8.90
2023-03-03T15:10:53.430Z,8.80
2023-03-03T15:14:16.623Z,8.80
2023-03-03T15:17:38.941Z,8.70
2023-03-03T15:21:03.507Z,8.80
2023-03-03T15:24:29.355Z,8.70
2023-03-03T15:27:53.478Z,8.70
2023-03-03T15:31:21.305Z,8.60
2023-03-03T15:34:44.629Z,8.70
2023-03-03T15:38:12.954Z,8.70
2023-03-03T15:41:41.348Z,8.70
2023-03-03T15:45:06.629Z,8.70
2023-03-03T15:48:42.058Z,8.60
2023-03-03T15:52:10.728Z,8.50
2023-03-03T15:55:36.803Z,8.50
2023-03-03T15:59:17.499Z,8.40
2023-03-03T16:02:45.291Z,8.30
2023-03-03T16:06:10.816Z,8.30
2023-03-03T16:09:41.636Z,8.20
2023-03-03T16:13:11.945Z,8.20
2023-03-03T16:16:41.560Z,8.10
2023-03-03T16:20:09.738Z,8.00
2023-03-03T16:23:34.736Z,8.00
2023-03-03T16:26:59.459Z,7.90
2023-03-03T16:30:27.478Z,7.80
2023-03-03T16:33:56.729Z,7.70
2023-03-03T16:37:20.849Z,7.60
2023-03-03T16:40:44.790Z,7.50
2023-03-03T16:44:12.670Z,7.40
2023-03-03T16:47:41.354Z,7.40
2023-03-03T16:51:10.127Z,7.20
2023-03-03T16:54:34.649Z,7.10
2023-03-03T16:58:02.608Z,7.00
2023-03-03T17:01:28.454Z,6.90
2023-03-03T17:04:53.494Z,6.80
2023-03-03T17:08:38.861Z,6.70
2023-03-03T17:12:08.562Z,6.60
2023-03-03T17:15:36.507Z,6.50
2023-03-03T17:19:06.355Z,6.40
2023-03-03T17:22:31.544Z,6.30
2023-03-03T17:25:55.659Z,6.20
2023-03-03T17:29:31.483Z,6.10
2023-03-03T17:33:04.249Z,6.00
2023-03-03T17:36:31.405Z,6.00
2023-03-03T17:40:01.386Z,5.90
2023-03-03T17:43:25.188Z,5.80
2023-03-03T17:46:50.283Z,5.70
2023-03-03T17:50:17.114Z,5.60
2023-03-03T17:53:47.367Z,5.60
2023-03-03T17:57:17.086Z,5.60
2023-03-03T18:00:48.164Z,5.50
2023-03-03T18:04:26.384Z,5.50
2023-03-03T18:07:52.797Z,5.50
2023-03-03T18:11:19.266Z,5.40
2023-03-03T18:14:53.657Z,5.30
2023-03-03T18:18:24.498Z,5.20
2023-03-03T18:21:53.327Z,5.00
2023-03-03T18:25:15.720Z,4.90
2023-03-03T18:28:44.405Z,4.90
2023-03-03T18:32:19.821Z,4.80
2023-03-03T18:35:42.403Z,4.80
2023-03-03T18:39:06.024Z,4.70
2023-03-03T18:42:38.143Z,4.60
2023-03-03T18:45:59.842Z,4.50
2023-03-03T18:49:40.122Z,4.40
2023-03-03T18:53:19.009Z,4.30
2023-03-03T18:56:47.194Z,4.20
2023-03-03T19:00:14.016Z,4.10
2023-03-03T19:03:36.668Z,4.10
2023-03-03T19:07:13.365Z,4.00
2023-03-03T19:10:53.024Z,3.90
2023-03-03T19:14:19.801Z,3.80
2023-03-03T19:17:46.170Z,3.80
2023-03-03T19:21:19.731Z,3.70
2023-03-03T19:25:01.434Z,3.70
2023-03-03T19:28:31.436Z,3.60
2023-03-03T19:31:58.468Z,3.60
2023-03-03T19:35:25.811Z,3.60
2023-03-03T19:38:55.534Z,3.60
2023-03-03T19:42:20.969Z,3.50
2023-03-03T19:45:50.316Z,3.50
2023-03-03T19:49:18.434Z,3.50
2023-03-03T19:52:43.371Z,3.40
2023-03-03T19:56:18.938Z,3.40
2023-03-03T19:59:44.498Z,3.30
2023-03-03T20:03:24.862Z,3.30
2023-03-03T20:06:56.402Z,3.20
2023-03-03T20:10:28.453Z,3.10
2023-03-03T20:13:54.993Z,3.10
2023-03-03T20:17:29.928Z,3.00
2023-03-03T20:20:55.956Z,3.00
2023-03-03T20:24:28.041Z,3.00
2023-03-03T20:27:54.424Z,2.90
2023-03-03T20:31:18.967Z,2.80
2023-03-03T20:34:45.675Z,2.80
2023-03-03T20:38:12.649Z,2.80
2023-03-03T20:41:48.960Z,2.70
2023-03-03T20:45:18.650Z,2.70
2023-03-03T20:48:48.921Z,2.70
2023-03-03T20:52:13.689Z,2.60
2023-03-03T20:55:41.574Z,2.60
2023-03-03T20:59:13.333Z,2.60
2023-03-03T21:02:38.487Z,2.50
2023-03-03T21:06:00.993Z,2.50
2023-03-03T21:09:24.111Z,2.40
2023-03-03T21:12:45.737Z,2.40
2023-03-03T21:16:11.527Z,2.40
2023-03-03T21:19:34.315Z,2.40
2023-03-03T21:22:56.578Z,2.40
2023-03-03T21:26:33.068Z,2.30
2023-03-03T21:30:08.437Z,2.30
2023-03-03T21:33:52.464Z,2.20
2023-03-03T21:37:34.298Z,2.20
2023-03-03T21:40:59.319Z,2.20
2023-03-03T21:44:31.289Z,2.10
2023-03-03T21:47:52.936Z,2.10
2023-03-03T21:51:15.990Z,2.00
2023-03-03T21:54:37.597Z,2.00
2023-03-03T21:57:59.186Z,2.00
2023-03-03T22:01:20.795Z,1.90
2023-03-03T22:04:42.467Z,1.90
2023-03-03T22:08:05.534Z,1.90
2023-03-03T22:11:27.115Z,1.90
2023-03-03T22:14:48.874Z,1.90
2023-03-03T22:18:10.549Z,1.80
2023-03-03T22:21:32.298Z,1.80
2023-03-03T22:24:55.456Z,1.80
2023-03-03T22:28:17.052Z,1.70
2023-03-03T22:31:38.801Z,1.70
2023-03-03T22:35:00.530Z,1.70
2023-03-03T22:38:22.093Z,1.70
2023-03-03T22:41:45.041Z,1.70
2023-03-03T22:45:07.500Z,1.60
2023-03-03T22:48:29.620Z,1.60
2023-03-03T22:51:51.233Z,1.60
2023-03-03T22:55:12.886Z,1.60
2023-03-03T22:58:35.900Z,1.60
2023-03-03T23:01:57.480Z,1.60
2023-03-03T23:05:19.110Z,1.60
2023-03-03T23:08:40.741Z,1.50
2023-03-03T23:12:02.356Z,1.50
2023-03-03T23:15:25.324Z,1.50
2023-03-03T23:18:46.896Z,1.40
2023-03-03T23:22:08.462Z,1.40
2023-03-03T23:25:30.498Z,1.40
2023-03-03T23:28:52.091Z,1.30
2023-03-03T23:32:15.091Z,1.30
2023-03-03T23:35:36.747Z,1.20
2023-03-03T23:38:58.378Z,1.20
2023-03-03T23:42:20.011Z,1.20
2023-03-03T23:45:41.606Z,1.10
2023-03-03T23:49:04.540Z,1.10
2023-03-03T23:52:26.129Z,1.10
2023-03-03T23:55:47.717Z,1.10
2023-03-03T23:59:09.311Z,1.10
